createdAt,value
2022-07-27T00:05:42.956Z,1.30
2022-07-27T00:08:46.112Z,1.10
2022-07-27T00:14:52.739Z,1.00
2022-07-27T00:17:56.913Z,1.50
2022-07-27T00:21:00.756Z,1.10
2022-07-27T00:24:03.551Z,1.10
2022-07-27T00:27:08.387Z,1.13
2022-07-27T00:30:12.069Z,1.37
2022-07-27T00:33:16.864Z,1.40
2022-07-27T00:36:20.295Z,1.40
2022-07-27T00:39:23.226Z,1.13
2022-07-27T00:42:28.164Z,1.35
2022-07-27T00:45:31.168Z,1.67
2022-07-27T00:48:33.938Z,1.30
2022-07-27T00:51:36.812Z,1.23
2022-07-27T00:54:39.636Z,1.48
2022-07-27T00:57:58.238Z,1.15
2022-07-27T01:01:02.804Z,1.33
2022-07-27T01:07:08.498Z,1.30
2022-07-27T01:10:11.284Z,1.88
2022-07-27T01:13:17.109Z,1.60
2022-07-27T01:16:21.206Z,1.50
2022-07-27T01:19:24.024Z,1.47
2022-07-27T01:22:28.034Z,1.50
2022-07-27T01:25:30.761Z,1.30
2022-07-27T01:28:33.405Z,1.58
2022-07-27T01:31:36.195Z,1.48
2022-07-27T01:34:39.112Z,1.23
2022-07-27T01:37:42.986Z,1.70
2022-07-27T01:40:52.023Z,1.80
2022-07-27T01:43:54.670Z,1.50
2022-07-27T01:46:57.284Z,1.55
2022-07-27T01:50:00.179Z,1.50
2022-07-27T01:53:04.528Z,2.35
2022-07-27T01:56:12.375Z,1.80
2022-07-27T01:59:16.698Z,1.88
2022-07-27T02:02:19.829Z,1.60
2022-07-27T02:05:22.823Z,1.90
2022-07-27T02:08:27.146Z,1.73
2022-07-27T02:11:48.280Z,1.70
2022-07-27T02:14:51.011Z,1.80
2022-07-27T02:17:54.167Z,1.55
2022-07-27T02:20:57.318Z,1.50
2022-07-27T02:24:01.466Z,2.00
2022-07-27T02:27:04.211Z,1.80
2022-07-27T02:30:08.615Z,1.80
2022-07-27T02:33:11.441Z,1.67
2022-07-27T02:36:14.452Z,1.60
2022-07-27T02:39:18.407Z,2.03
2022-07-27T02:42:21.920Z,1.47
2022-07-27T02:45:24.778Z,1.60
2022-07-27T02:48:27.626Z,1.90
2022-07-27T02:51:30.304Z,1.95
2022-07-27T02:54:34.944Z,1.52
2022-07-27T02:57:37.913Z,1.60
2022-07-27T03:00:40.666Z,1.67
2022-07-27T03:03:43.424Z,1.95
2022-07-27T03:06:46.541Z,2.03
2022-07-27T03:09:52.648Z,1.58
2022-07-27T03:12:55.515Z,1.60
2022-07-27T03:15:58.643Z,2.30
2022-07-27T03:22:03.950Z,2.10
2022-07-27T03:25:09.777Z,2.40
2022-07-27T03:28:12.572Z,1.83
2022-07-27T03:31:15.390Z,2.17
2022-07-27T03:34:18.576Z,2.30
2022-07-27T03:37:21.532Z,2.17
2022-07-27T03:40:32.603Z,1.70
2022-07-27T03:43:35.959Z,1.77
2022-07-27T03:49:41.320Z,1.90
2022-07-27T03:52:45.436Z,1.90
2022-07-27T03:55:49.982Z,1.90
2022-07-27T03:58:52.826Z,1.87
2022-07-27T04:01:55.686Z,1.70
2022-07-27T04:04:58.521Z,1.70
2022-07-27T04:08:01.279Z,1.90
2022-07-27T04:11:05.910Z,1.85
2022-07-27T04:14:10.583Z,2.00
2022-07-27T04:17:56.164Z,2.00
2022-07-27T04:20:38.133Z,1.90
2022-07-27T04:23:40.935Z,2.30
2022-07-27T04:26:45.008Z,2.03
2022-07-27T04:29:47.705Z,2.40
2022-07-27T04:32:59.570Z,2.05
2022-07-27T04:36:02.371Z,2.07
2022-07-27T04:39:05.882Z,1.88
2022-07-27T04:42:12.551Z,2.07
2022-07-27T04:45:16.201Z,2.17
2022-07-27T04:48:19.055Z,2.37
2022-07-27T04:54:25.954Z,3.08
2022-07-27T04:57:33.747Z,2.40
2022-07-27T05:00:37.178Z,2.23
2022-07-27T05:06:43.628Z,2.22
2022-07-27T05:09:46.738Z,2.20
2022-07-27T05:12:51.096Z,2.33
2022-07-27T05:15:56.053Z,2.50
2022-07-27T05:18:59.070Z,2.10
2022-07-27T05:22:02.398Z,2.60
2022-07-27T05:25:05.715Z,2.10
2022-07-27T05:34:14.941Z,1.87
2022-07-27T05:37:17.583Z,2.22
2022-07-27T05:40:20.557Z,2.10
2022-07-27T05:43:24.555Z,2.75
2022-07-27T05:46:31.064Z,2.30
2022-07-27T05:49:35.638Z,3.07
2022-07-27T05:52:38.375Z,2.72
2022-07-27T05:55:58.367Z,3.08
2022-07-27T05:59:07.104Z,2.33
2022-07-27T06:02:10.424Z,2.30
2022-07-27T06:05:15.954Z,2.50
2022-07-27T06:08:19.608Z,2.77
2022-07-27T06:11:22.319Z,2.20
2022-07-27T06:14:26.467Z,2.28
2022-07-27T06:17:29.247Z,2.17
2022-07-27T06:20:32.116Z,1.92
2022-07-27T06:23:34.945Z,2.17
2022-07-27T06:26:37.686Z,2.70
2022-07-27T06:29:41.736Z,2.25
2022-07-27T06:32:44.373Z,2.20
2022-07-27T06:35:46.973Z,1.98
2022-07-27T06:38:50.165Z,2.25
2022-07-27T06:41:57.974Z,2.17
2022-07-27T06:45:02.470Z,2.50
2022-07-27T06:48:06.200Z,2.60
2022-07-27T06:51:09.622Z,2.23
2022-07-27T06:54:12.500Z,2.13
2022-07-27T06:57:15.702Z,2.40
2022-07-27T07:00:19.849Z,3.00
2022-07-27T07:03:22.642Z,2.20
2022-07-27T07:06:25.433Z,2.08
2022-07-27T07:09:28.621Z,2.30
2022-07-27T07:12:32.062Z,2.20
2022-07-27T07:15:37.918Z,2.00
2022-07-27T07:18:40.748Z,1.90
2022-07-27T07:21:43.412Z,2.13
2022-07-27T07:24:46.012Z,2.15
2022-07-27T07:27:48.933Z,2.15
2022-07-27T07:30:53.019Z,2.20
2022-07-27T07:33:55.779Z,2.30
2022-07-27T07:36:58.464Z,2.40
2022-07-27T07:40:13.003Z,1.90
2022-07-27T07:43:23.896Z,2.17
2022-07-27T07:46:28.265Z,2.15
2022-07-27T07:49:37.870Z,2.07
2022-07-27T07:52:42.864Z,2.30
2022-07-27T07:55:45.620Z,2.25
2022-07-27T07:58:48.845Z,2.45
2022-07-27T08:01:52.913Z,2.43
2022-07-27T08:04:55.685Z,2.07
2022-07-27T08:07:58.423Z,1.95
2022-07-27T08:11:01.253Z,2.25
2022-07-27T08:14:04.384Z,2.10
2022-07-27T08:17:08.316Z,2.30
2022-07-27T08:20:12.249Z,2.50
2022-07-27T08:23:14.882Z,2.10
2022-07-27T08:26:17.923Z,2.15
2022-07-27T08:29:23.253Z,2.10
2022-07-27T08:32:29.204Z,2.30
2022-07-27T08:35:33.006Z,2.47
2022-07-27T08:38:35.707Z,2.17
2022-07-27T08:41:39.899Z,2.50
2022-07-27T08:44:45.657Z,2.50
2022-07-27T08:47:49.713Z,2.00
2022-07-27T08:50:52.773Z,2.50
2022-07-27T08:57:00.411Z,2.50
2022-07-27T09:00:03.548Z,2.40
2022-07-27T09:03:07.740Z,2.23
2022-07-27T09:06:10.478Z,2.57
2022-07-27T09:09:14.858Z,1.85
2022-07-27T09:12:18.436Z,2.17
2022-07-27T09:15:21.089Z,2.20
2022-07-27T09:18:27.214Z,1.90
2022-07-27T09:21:30.041Z,2.45
2022-07-27T09:24:48.235Z,2.13
2022-07-27T09:27:55.082Z,1.90
2022-07-27T09:31:06.433Z,2.10
2022-07-27T09:34:11.393Z,2.30
2022-07-27T09:37:24.655Z,2.28
2022-07-27T09:40:27.236Z,2.40
2022-07-27T09:46:53.015Z,1.98
2022-07-27T09:53:41.529Z,2.53
2022-07-27T09:56:36.433Z,2.55
2022-07-27T10:02:42.914Z,2.35
2022-07-27T10:05:47.155Z,2.03
2022-07-27T10:08:51.532Z,2.20
2022-07-27T10:11:54.816Z,2.40
2022-07-27T10:14:57.539Z,2.22
2022-07-27T10:18:07.354Z,2.25
2022-07-27T10:21:12.121Z,2.30
2022-07-27T10:24:27.040Z,2.25
2022-07-27T10:27:30.853Z,2.42
2022-07-27T10:30:33.555Z,2.10
2022-07-27T10:36:52.116Z,2.10
2022-07-27T10:40:16.996Z,1.80
2022-07-27T10:43:21.151Z,2.15
2022-07-27T10:46:24.002Z,1.85
2022-07-27T10:49:28.289Z,1.73
2022-07-27T10:52:43.373Z,2.00
2022-07-27T10:55:53.277Z,1.70
2022-07-27T10:58:56.150Z,1.98
2022-07-27T11:01:59.504Z,1.70
2022-07-27T11:05:05.537Z,2.10
2022-07-27T11:08:36.472Z,1.98
2022-07-27T11:11:34.530Z,1.80
2022-07-27T11:14:46.249Z,1.70
2022-07-27T11:17:58.389Z,1.50
2022-07-27T11:21:15.190Z,1.45
2022-07-27T11:24:19.287Z,1.90
2022-07-27T11:27:25.205Z,1.45
2022-07-27T11:30:29.415Z,1.40
2022-07-27T11:33:32.416Z,1.45
2022-07-27T11:36:43.179Z,1.60
2022-07-27T11:40:20.259Z,1.45
2022-07-27T11:43:14.509Z,1.20
2022-07-27T11:46:21.206Z,1.40
2022-07-27T11:49:28.651Z,1.30
2022-07-27T11:52:31.455Z,1.48
2022-07-27T11:55:35.437Z,1.30
2022-07-27T11:59:09.359Z,1.15
2022-07-27T12:02:14.074Z,1.17
2022-07-27T12:05:17.089Z,1.27
2022-07-27T12:08:20.063Z,1.33
2022-07-27T12:11:34.294Z,1.60
2022-07-27T12:14:39.213Z,1.27
2022-07-27T12:17:43.320Z,1.35
2022-07-27T12:20:48.586Z,1.10
2022-07-27T12:23:52.847Z,1.42
2022-07-27T12:27:08.410Z,1.40
2022-07-27T12:33:28.302Z,1.50
2022-07-27T12:36:31.541Z,1.10
2022-07-27T12:39:34.373Z,1.20
2022-07-27T12:42:38.353Z,1.17
2022-07-27T12:45:41.227Z,1.45
2022-07-27T12:48:44.264Z,1.10
2022-07-27T12:51:46.970Z,1.10
2022-07-27T12:54:49.707Z,1.00
2022-07-27T12:57:56.479Z,1.00
2022-07-27T13:00:59.922Z,1.00
2022-07-27T13:04:02.860Z,1.00
2022-07-27T13:07:05.552Z,1.42
2022-07-27T13:10:11.216Z,0.90
2022-07-27T13:13:15.428Z,1.15
2022-07-27T13:16:18.298Z,0.93
2022-07-27T13:19:21.032Z,1.25
2022-07-27T13:22:23.929Z,0.60
2022-07-27T13:25:26.829Z,0.85
2022-07-27T13:28:30.855Z,0.63
2022-07-27T13:31:33.678Z,0.82
2022-07-27T13:34:36.459Z,0.80
2022-07-27T13:37:41.902Z,1.05
2022-07-27T13:40:45.042Z,1.08
2022-07-27T13:43:49.082Z,0.90
2022-07-27T13:46:51.855Z,1.00
2022-07-27T13:49:56.338Z,0.80
2022-07-27T13:52:59.043Z,1.08
2022-07-27T13:56:03.110Z,0.70
2022-07-27T13:59:08.030Z,0.70
2022-07-27T14:02:11.594Z,0.90
2022-07-27T14:05:15.981Z,1.40
2022-07-27T14:08:22.025Z,0.90
2022-07-27T14:11:24.773Z,0.73
2022-07-27T14:14:28.804Z,0.73
2022-07-27T14:17:31.472Z,0.75
2022-07-27T14:20:34.550Z,0.75
2022-07-27T14:23:38.120Z,0.80
2022-07-27T14:26:40.856Z,1.23
2022-07-27T14:29:44.947Z,0.93
2022-07-27T14:32:47.654Z,0.82
2022-07-27T14:35:50.312Z,0.90
2022-07-27T14:38:53.519Z,1.10
2022-07-27T14:41:56.287Z,0.90
2022-07-27T14:45:00.325Z,1.15
2022-07-27T14:48:03.193Z,1.80
2022-07-27T14:51:06.515Z,0.88
2022-07-27T14:54:09.113Z,1.33
2022-07-27T14:57:11.949Z,0.70
2022-07-27T15:00:17.683Z,1.30
2022-07-27T15:03:21.242Z,0.90
2022-07-27T15:06:24.012Z,0.82
2022-07-27T15:09:28.450Z,0.90
2022-07-27T15:12:34.890Z,0.95
2022-07-27T15:15:41.639Z,0.75
2022-07-27T15:18:45.815Z,0.70
2022-07-27T15:21:48.787Z,0.65
2022-07-27T15:24:52.564Z,0.70
2022-07-27T15:27:55.416Z,0.68
2022-07-27T15:30:59.498Z,0.90
2022-07-27T15:34:02.115Z,1.08
2022-07-27T15:37:07.361Z,1.13
2022-07-27T15:40:28.722Z,0.77
2022-07-27T15:43:31.460Z,0.90
2022-07-27T15:46:35.765Z,0.70
2022-07-27T15:49:38.709Z,1.00
2022-07-27T15:52:41.461Z,0.75
2022-07-27T15:55:44.541Z,0.80
2022-07-27T15:58:47.202Z,0.70
2022-07-27T16:01:51.364Z,0.90
2022-07-27T16:04:56.382Z,1.00
2022-07-27T16:07:59.256Z,0.73
2022-07-27T16:11:01.979Z,0.77
2022-07-27T16:14:04.840Z,0.80
2022-07-27T16:17:09.044Z,0.70
2022-07-27T16:20:13.386Z,1.33
2022-07-27T16:23:18.632Z,1.00
2022-07-27T16:26:24.471Z,1.15
2022-07-27T16:29:28.435Z,1.00
2022-07-27T16:32:32.696Z,1.20
2022-07-27T16:35:35.513Z,1.10
2022-07-27T16:38:49.790Z,0.70
2022-07-27T16:41:53.105Z,0.75
2022-07-27T16:44:56.315Z,0.70
2022-07-27T16:48:00.554Z,1.05
2022-07-27T16:51:03.325Z,0.68
2022-07-27T16:54:06.339Z,0.80
2022-07-27T16:57:10.692Z,1.00
2022-07-27T17:00:15.307Z,0.82
2022-07-27T17:03:19.274Z,1.20
2022-07-27T17:06:22.006Z,0.88
2022-07-27T17:09:24.757Z,0.90
2022-07-27T17:12:27.430Z,0.60
2022-07-27T17:15:31.480Z,0.73
2022-07-27T17:18:40.130Z,0.77
2022-07-27T17:21:43.421Z,0.90
2022-07-27T17:24:46.388Z,0.70
2022-07-27T17:27:49.267Z,0.77
2022-07-27T17:30:52.174Z,1.00
2022-07-27T17:33:57.115Z,1.08
2022-07-27T17:37:00.018Z,1.10
2022-07-27T17:40:02.822Z,1.02
2022-07-27T17:43:05.866Z,1.38
2022-07-27T17:46:10.354Z,0.70
2022-07-27T17:49:15.043Z,1.20
2022-07-27T17:52:18.005Z,1.13
2022-07-27T17:58:28.043Z,1.13
2022-07-27T18:01:47.144Z,1.10
2022-07-27T18:04:52.445Z,1.40
2022-07-27T18:07:55.278Z,1.33
2022-07-27T18:14:00.446Z,1.05
2022-07-27T18:17:03.344Z,1.35
2022-07-27T18:20:10.326Z,0.90
2022-07-27T18:23:13.056Z,0.88
2022-07-27T18:29:18.429Z,1.10
2022-07-27T18:35:25.425Z,0.95
2022-07-27T18:38:28.284Z,1.10
2022-07-27T18:44:38.798Z,0.97
2022-07-27T18:47:41.770Z,1.20
2022-07-27T18:50:53.843Z,1.00
2022-07-27T18:53:56.564Z,1.00
2022-07-27T18:56:59.880Z,1.38
2022-07-27T19:00:02.872Z,1.10
2022-07-27T19:06:17.970Z,1.30
2022-07-27T19:09:21.671Z,1.00
2022-07-27T19:15:27.062Z,0.80
2022-07-27T19:18:29.954Z,1.20
2022-07-27T19:24:36.910Z,1.43
2022-07-27T19:27:40.131Z,1.10
2022-07-27T19:30:43.249Z,1.33
2022-07-27T19:33:46.721Z,1.47
2022-07-27T19:39:57.298Z,1.10
2022-07-27T19:43:06.009Z,1.10
2022-07-27T19:46:09.150Z,1.07
2022-07-27T19:49:12.302Z,1.00
2022-07-27T19:52:17.324Z,1.10
2022-07-27T19:55:20.138Z,1.27
2022-07-27T19:58:23.406Z,1.00
2022-07-27T20:01:26.416Z,1.40
2022-07-27T20:07:33.222Z,1.10
2022-07-27T20:10:36.011Z,1.37
2022-07-27T20:13:38.725Z,1.35
2022-07-27T20:16:41.827Z,1.45
2022-07-27T20:19:45.229Z,1.33
2022-07-27T20:22:49.277Z,1.77
2022-07-27T20:25:52.215Z,1.80
2022-07-27T20:28:55.032Z,1.30
2022-07-27T20:31:57.979Z,1.27
2022-07-27T20:38:05.214Z,1.50
2022-07-27T20:41:07.932Z,2.07
2022-07-27T20:44:10.699Z,1.60
2022-07-27T20:47:14.673Z,1.33
2022-07-27T20:50:17.619Z,1.57
2022-07-27T20:53:21.742Z,1.63
2022-07-27T20:56:24.612Z,1.53
2022-07-27T20:59:28.381Z,1.70
2022-07-27T21:02:31.075Z,1.40
2022-07-27T21:05:34.853Z,1.40
2022-07-27T21:08:44.293Z,1.60
2022-07-27T21:11:50.660Z,1.37
2022-07-27T21:14:53.279Z,0.80
2022-07-27T21:17:56.129Z,1.30
2022-07-27T21:20:59.072Z,0.60
2022-07-27T21:27:21.550Z,1.20
2022-07-27T21:30:24.404Z,0.77
2022-07-27T21:33:27.089Z,1.02
2022-07-27T21:36:29.751Z,1.50
2022-07-27T21:39:33.781Z,1.08
2022-07-27T21:42:36.472Z,1.20
2022-07-27T21:45:39.220Z,1.33
2022-07-27T21:48:50.705Z,1.00
2022-07-27T21:51:53.521Z,1.02
2022-07-27T21:54:59.908Z,1.10
2022-07-27T21:58:02.649Z,1.20
2022-07-27T22:01:05.635Z,1.00
2022-07-27T22:04:10.452Z,0.90
2022-07-27T22:07:19.040Z,1.53
2022-07-27T22:10:23.828Z,0.97
2022-07-27T22:13:26.581Z,0.80
2022-07-27T22:16:29.353Z,1.08
2022-07-27T22:19:32.053Z,1.90
2022-07-27T22:22:34.998Z,1.10
2022-07-27T22:25:39.190Z,1.23
2022-07-27T22:28:42.143Z,1.10
2022-07-27T22:31:45.006Z,0.90
2022-07-27T22:34:47.899Z,1.30
2022-07-27T22:37:50.756Z,1.38
2022-07-27T22:40:54.833Z,1.08
2022-07-27T22:43:57.590Z,0.80
2022-07-27T22:47:00.432Z,0.80
2022-07-27T22:50:04.038Z,1.10
2022-07-27T22:53:06.709Z,1.30
2022-07-27T22:56:10.821Z,1.70
2022-07-27T22:59:13.416Z,1.00
2022-07-27T23:02:16.158Z,0.95
2022-07-27T23:05:18.941Z,1.00
2022-07-27T23:08:21.853Z,1.20
2022-07-27T23:11:25.848Z,1.20
2022-07-27T23:14:30.041Z,1.27
2022-07-27T23:17:32.702Z,0.90
2022-07-27T23:20:35.394Z,0.90
2022-07-27T23:23:39.866Z,1.90
2022-07-27T23:26:54.213Z,1.20
2022-07-27T23:29:56.918Z,1.33
2022-07-27T23:32:59.562Z,1.10
2022-07-27T23:36:06.138Z,1.10
2022-07-27T23:39:08.790Z,1.00
2022-07-27T23:42:13.071Z,1.38
2022-07-27T23:45:15.811Z,0.97
2022-07-27T23:48:18.898Z,0.93
2022-07-27T23:51:21.623Z,1.20
2022-07-27T23:54:24.542Z,1.48
2022-07-27T23:57:28.790Z,1.52
